BIBA weather

Bakki Airport
Bakki, Southern Region, Iceland

Public forecast

Using degrees Celsius for public forecast. Weather courtesy of forecast.io.

Closest aviation weather report (METAR) to Bakki Airport

Report is more than 6 hours old.

Closest report is Vestmannaeyjar Airport, 8.8 nm (16.2 km) SSW. Retrieved 2019/10/17 17:00 UTC (10 hours ago):

BIVM 171700Z 28008KT 9999 FEW020 SCT040 07/05 Q1007

Closest aviation forecast (TAF) to Bakki Airport

Closest forecast is Reykjavik Airport, 58.9 nm (109.0 km) NW. Retrieved 2019-10-18 03:21 UTC (0 seconds ago):

TAF BIRK 180119Z 1803/1903 09005KT CAVOK TX07/1815Z TN02/1809Z BECMG 1815/1817 9999 -SHRA BKN025